createdAt,value
2023-04-07T00:01:24.083Z,67.47
2023-04-07T00:03:54.585Z,67.50
2023-04-07T00:06:25.203Z,67.40
2023-04-07T00:08:55.713Z,67.47
2023-04-07T00:11:25.954Z,67.63
2023-04-07T00:13:56.467Z,67.54
2023-04-07T00:16:27.423Z,67.53
2023-04-07T00:19:06.650Z,67.46
2023-04-07T00:21:42.094Z,67.46
2023-04-07T00:24:14.429Z,67.75
2023-04-07T00:27:13.938Z,67.75
2023-04-07T00:29:46.238Z,67.65
2023-04-07T00:32:16.631Z,67.79
2023-04-07T00:34:46.968Z,67.55
2023-04-07T00:37:17.209Z,67.46
2023-04-07T00:39:49.166Z,67.54
2023-04-07T00:42:19.520Z,67.39
2023-04-07T00:44:49.967Z,67.52
2023-04-07T00:47:20.416Z,67.41
2023-04-07T00:49:50.975Z,67.42
2023-04-07T00:52:29.681Z,67.19
2023-04-07T00:55:02.048Z,67.17
2023-04-07T00:57:32.424Z,67.14
2023-04-07T01:00:02.994Z,67.07
2023-04-07T01:02:44.839Z,66.95
2023-04-07T01:05:20.095Z,66.97
2023-04-07T01:08:03.776Z,66.70
2023-04-07T01:10:55.795Z,66.55
2023-04-07T01:13:27.736Z,66.55
2023-04-07T01:16:12.358Z,66.55
2023-04-07T01:18:51.165Z,66.25
2023-04-07T01:21:22.369Z,66.38
2023-04-07T01:24:10.438Z,66.66
2023-04-07T01:26:42.015Z,66.38
2023-04-07T01:29:39.861Z,66.56
2023-04-07T01:32:14.314Z,66.55
2023-04-07T01:34:45.118Z,66.38
2023-04-07T01:37:16.491Z,66.35
2023-04-07T01:39:47.298Z,66.45
2023-04-07T01:42:19.503Z,66.37
2023-04-07T01:44:50.947Z,66.47
2023-04-07T01:47:22.063Z,66.53
2023-04-07T01:49:53.959Z,66.49
2023-04-07T01:52:24.820Z,66.29
2023-04-07T01:54:57.665Z,65.94
2023-04-07T01:57:29.372Z,65.93
2023-04-07T02:00:04.834Z,65.76
2023-04-07T02:02:49.339Z,65.77
2023-04-07T02:05:23.577Z,65.95
2023-04-07T02:08:02.370Z,66.07
2023-04-07T02:10:37.972Z,65.62
2023-04-07T02:13:11.370Z,65.63
2023-04-07T02:15:43.967Z,65.63
2023-04-07T02:18:17.377Z,65.42
2023-04-07T02:20:48.749Z,65.42
2023-04-07T02:23:19.748Z,65.42
2023-04-07T02:25:49.890Z,65.42
2023-04-07T02:28:20.245Z,65.47
2023-04-07T02:30:50.410Z,65.58
2023-04-07T02:33:20.529Z,65.31
2023-04-07T02:35:50.908Z,65.59
2023-04-07T02:38:20.996Z,65.61
2023-04-07T02:40:51.093Z,65.88
2023-04-07T02:43:23.156Z,65.56
2023-04-07T02:45:54.749Z,65.45
2023-04-07T02:48:26.534Z,65.41
2023-04-07T02:50:56.989Z,65.56
2023-04-07T02:53:27.268Z,65.44
2023-04-07T02:55:57.618Z,65.24
2023-04-07T02:58:27.951Z,65.45
2023-04-07T03:00:58.091Z,65.63
2023-04-07T03:03:31.873Z,65.77
2023-04-07T03:06:14.025Z,65.52
2023-04-07T03:09:04.199Z,65.64
2023-04-07T03:11:34.413Z,65.64
2023-04-07T03:14:04.465Z,65.78
2023-04-07T03:16:35.890Z,65.69
2023-04-07T03:19:14.960Z,65.75
2023-04-07T03:21:53.801Z,66.04
2023-04-07T03:24:24.036Z,66.47
2023-04-07T03:26:54.460Z,65.77
2023-04-07T03:29:38.708Z,65.99
2023-04-07T03:32:11.391Z,66.17
2023-04-07T03:34:41.669Z,66.63
2023-04-07T03:37:12.001Z,66.71
2023-04-07T03:39:43.434Z,67.15
2023-04-07T03:42:36.198Z,66.99
2023-04-07T03:45:10.136Z,67.11
2023-04-07T03:47:45.186Z,67.17
2023-04-07T03:50:15.759Z,67.12
2023-04-07T03:53:11.877Z,66.95
2023-04-07T03:55:42.319Z,66.88
2023-04-07T03:58:21.864Z,66.83
2023-04-07T04:00:52.639Z,66.74
2023-04-07T04:03:23.092Z,66.94
2023-04-07T04:06:08.169Z,66.75
2023-04-07T04:08:38.362Z,66.51
2023-04-07T04:11:09.001Z,66.73
2023-04-07T04:13:47.228Z,66.83
2023-04-07T04:16:17.852Z,66.70
2023-04-07T04:18:50.155Z,66.66
2023-04-07T04:21:20.950Z,66.74
2023-04-07T04:23:51.382Z,66.58
2023-04-07T04:26:21.775Z,66.71
2023-04-07T04:28:51.946Z,66.63
2023-04-07T04:31:24.151Z,66.90
2023-04-07T04:33:55.072Z,66.55
2023-04-07T04:36:27.214Z,66.52
2023-04-07T04:39:02.073Z,66.38
2023-04-07T04:41:32.832Z,66.24
2023-04-07T04:44:03.911Z,66.14
2023-04-07T04:46:35.026Z,66.06
2023-04-07T04:49:05.550Z,66.12
2023-04-07T04:51:37.398Z,66.04
2023-04-07T04:54:15.515Z,66.25
2023-04-07T04:56:46.265Z,66.11
2023-04-07T04:59:16.473Z,66.17
2023-04-07T05:01:57.056Z,66.44
2023-04-07T05:04:27.473Z,66.17
2023-04-07T05:07:04.928Z,66.03
2023-04-07T05:09:35.744Z,65.95
2023-04-07T05:12:06.213Z,65.76
2023-04-07T05:14:41.803Z,65.71
2023-04-07T05:17:12.452Z,65.53
2023-04-07T05:19:42.821Z,65.43
2023-04-07T05:22:25.859Z,65.25
2023-04-07T05:24:56.064Z,65.40
2023-04-07T05:27:26.356Z,65.30
2023-04-07T05:30:01.385Z,65.21
2023-04-07T05:32:35.777Z,65.34
2023-04-07T05:35:13.018Z,65.14
2023-04-07T05:37:51.432Z,65.18
2023-04-07T05:40:21.833Z,64.92
2023-04-07T05:42:53.224Z,64.76
2023-04-07T05:45:24.050Z,64.64
2023-04-07T05:47:54.342Z,64.44
2023-04-07T05:50:30.511Z,64.34
2023-04-07T05:53:04.177Z,64.11
2023-04-07T05:55:34.765Z,64.17
2023-04-07T05:58:05.963Z,63.95
2023-04-07T06:00:36.914Z,63.93
2023-04-07T06:03:15.013Z,63.91
2023-04-07T06:05:58.810Z,63.82
2023-04-07T06:08:29.681Z,63.60
2023-04-07T06:10:59.941Z,63.52
2023-04-07T06:13:30.316Z,63.16
2023-04-07T06:16:00.592Z,63.01
2023-04-07T06:18:30.781Z,63.05
2023-04-07T06:21:02.310Z,62.98
2023-04-07T06:23:32.534Z,62.55
2023-04-07T06:26:02.771Z,62.54
2023-04-07T06:28:33.194Z,62.47
2023-04-07T06:31:03.548Z,62.50
2023-04-07T06:33:33.948Z,62.23
2023-04-07T06:36:04.510Z,62.30
2023-04-07T06:38:35.092Z,62.21
2023-04-07T06:41:05.513Z,62.43
2023-04-07T06:43:36.021Z,62.19
2023-04-07T06:46:07.745Z,62.25
2023-04-07T06:48:38.086Z,62.32
2023-04-07T06:51:08.242Z,62.11
2023-04-07T06:53:38.878Z,61.59
2023-04-07T06:56:14.291Z,60.75
2023-04-07T06:58:44.556Z,60.63
2023-04-07T07:01:14.626Z,61.32
2023-04-07T07:03:44.928Z,61.40
2023-04-07T07:06:16.099Z,61.52
2023-04-07T07:08:45.871Z,61.18
2023-04-07T07:11:16.037Z,60.95
2023-04-07T07:13:47.793Z,60.96
2023-04-07T07:16:18.433Z,61.08
2023-04-07T07:18:48.634Z,60.20
2023-04-07T07:21:19.688Z,59.76
2023-04-07T07:23:49.893Z,59.04
2023-04-07T07:26:20.373Z,59.32
2023-04-07T07:28:50.693Z,59.47
2023-04-07T07:31:21.110Z,59.53
2023-04-07T07:33:53.811Z,59.51
2023-04-07T07:36:24.067Z,59.35
2023-04-07T07:38:54.508Z,59.34
2023-04-07T07:41:24.705Z,59.16
2023-04-07T07:43:55.347Z,59.02
2023-04-07T07:46:28.257Z,59.22
2023-04-07T07:48:58.631Z,59.17
2023-04-07T07:51:30.464Z,59.26
2023-04-07T07:54:00.718Z,59.30
2023-04-07T07:56:31.199Z,59.72
2023-04-07T07:59:01.577Z,59.19
2023-04-07T08:01:31.853Z,58.91
2023-04-07T08:04:02.038Z,58.97
2023-04-07T08:06:33.813Z,59.27
2023-04-07T08:09:04.024Z,59.39
2023-04-07T08:11:34.222Z,59.49
2023-04-07T08:14:04.340Z,59.57
2023-04-07T08:16:34.536Z,59.97
2023-04-07T08:19:04.806Z,59.95
2023-04-07T08:21:35.183Z,59.78
2023-04-07T08:24:05.396Z,59.95
2023-04-07T08:26:36.141Z,60.14
2023-04-07T08:29:06.374Z,60.34
2023-04-07T08:31:36.852Z,60.38
2023-04-07T08:34:06.998Z,60.38
2023-04-07T08:36:37.245Z,60.64
2023-04-07T08:39:08.063Z,60.57
2023-04-07T08:41:43.786Z,60.41
2023-04-07T08:44:15.685Z,60.57
2023-04-07T08:46:47.264Z,60.51
2023-04-07T08:49:20.397Z,60.53
2023-04-07T08:51:51.056Z,60.60
2023-04-07T08:54:23.972Z,60.71
2023-04-07T08:56:55.109Z,60.72
2023-04-07T08:59:29.090Z,60.79
2023-04-07T09:01:59.714Z,60.98
2023-04-07T09:04:30.193Z,61.10
2023-04-07T09:07:00.488Z,60.94
2023-04-07T09:09:30.800Z,61.00
2023-04-07T09:12:01.254Z,61.03
2023-04-07T09:14:31.503Z,60.68
2023-04-07T09:17:02.769Z,60.51
2023-04-07T09:19:33.340Z,60.77
2023-04-07T09:22:03.566Z,60.84
2023-04-07T09:24:36.814Z,60.67
2023-04-07T09:27:21.746Z,60.47
2023-04-07T09:29:51.985Z,60.55
2023-04-07T09:32:49.828Z,60.58
2023-04-07T09:35:20.076Z,60.40
2023-04-07T09:38:11.031Z,60.64
2023-04-07T09:40:41.320Z,61.00
2023-04-07T09:43:21.581Z,60.83
2023-04-07T09:45:51.854Z,60.71
2023-04-07T09:48:24.228Z,60.92
2023-04-07T09:50:54.477Z,60.83
2023-04-07T09:53:44.271Z,60.88
2023-04-07T09:56:14.632Z,60.53
2023-04-07T09:58:47.726Z,60.86
2023-04-07T10:01:19.891Z,61.16
2023-04-07T10:03:53.113Z,60.79
2023-04-07T10:06:24.096Z,61.07
2023-04-07T10:08:54.739Z,60.77
2023-04-07T10:11:25.017Z,60.27
2023-04-07T10:13:56.101Z,60.48
2023-04-07T10:16:27.364Z,60.26
2023-04-07T10:18:58.710Z,60.30
2023-04-07T10:21:31.248Z,60.02
2023-04-07T10:24:25.544Z,59.93
2023-04-07T10:27:06.722Z,60.12
2023-04-07T10:29:42.307Z,59.95
2023-04-07T10:32:13.509Z,60.29
2023-04-07T10:34:53.140Z,60.24
2023-04-07T10:37:24.841Z,60.28
2023-04-07T10:40:23.995Z,60.13
2023-04-07T10:42:54.339Z,60.34
2023-04-07T10:45:54.652Z,60.31
2023-04-07T10:48:25.698Z,60.30
2023-04-07T10:51:17.542Z,59.98
2023-04-07T10:54:26.280Z,59.93
2023-04-07T10:57:06.842Z,59.44
2023-04-07T10:59:37.262Z,59.31
2023-04-07T11:02:16.910Z,58.47
2023-04-07T11:04:49.106Z,58.48
2023-04-07T11:07:22.232Z,58.38
2023-04-07T11:09:52.430Z,57.59
2023-04-07T11:12:26.982Z,57.90
2023-04-07T11:14:57.138Z,57.93
2023-04-07T11:17:27.427Z,57.56
2023-04-07T11:19:58.532Z,58.23
2023-04-07T11:22:30.550Z,57.63
2023-04-07T11:25:01.047Z,57.79
2023-04-07T11:27:32.490Z,57.20
2023-04-07T11:30:03.235Z,57.23
2023-04-07T11:32:33.917Z,56.67
2023-04-07T11:35:04.266Z,56.82
2023-04-07T11:37:35.089Z,56.45
2023-04-07T11:40:05.625Z,56.29
2023-04-07T11:42:40.836Z,56.47
2023-04-07T11:45:22.994Z,56.43
2023-04-07T11:47:53.376Z,56.37
2023-04-07T11:50:44.251Z,56.27
2023-04-07T11:53:14.669Z,56.27
2023-04-07T11:55:44.821Z,56.14
2023-04-07T11:58:15.254Z,56.00
2023-04-07T12:00:59.570Z,55.90
2023-04-07T12:03:30.012Z,56.05
2023-04-07T12:06:00.595Z,55.79
2023-04-07T12:08:45.040Z,55.59
2023-04-07T12:11:15.610Z,55.44
2023-04-07T12:13:45.849Z,55.29
2023-04-07T12:16:16.313Z,55.08
2023-04-07T12:18:46.602Z,54.76
2023-04-07T12:21:17.059Z,54.58
2023-04-07T12:23:48.790Z,54.69
2023-04-07T12:26:20.567Z,54.22
2023-04-07T12:28:51.966Z,54.19
2023-04-07T12:31:22.173Z,54.26
2023-04-07T12:33:52.483Z,54.34
2023-04-07T12:36:23.443Z,53.92
2023-04-07T12:38:53.516Z,54.14
2023-04-07T12:41:23.578Z,54.18
2023-04-07T12:43:53.982Z,54.06
2023-04-07T12:46:24.485Z,54.10
2023-04-07T12:48:54.765Z,54.08
2023-04-07T12:51:25.064Z,54.26
2023-04-07T12:53:56.492Z,54.17
2023-04-07T12:56:26.643Z,53.91
2023-04-07T12:58:57.048Z,53.88
2023-04-07T13:01:27.402Z,53.72
2023-04-07T13:03:58.753Z,53.65
2023-04-07T13:06:29.099Z,53.75
2023-04-07T13:08:59.337Z,53.82
2023-04-07T13:11:29.680Z,53.61
2023-04-07T13:14:01.278Z,53.44
2023-04-07T13:16:31.929Z,53.57
2023-04-07T13:19:05.360Z,53.21
2023-04-07T13:21:46.665Z,53.16
2023-04-07T13:24:17.971Z,53.10
2023-04-07T13:26:48.034Z,52.97
2023-04-07T13:29:19.371Z,53.00
2023-04-07T13:31:49.425Z,52.81
2023-04-07T13:34:19.545Z,52.69
2023-04-07T13:36:49.761Z,53.00
2023-04-07T13:39:19.951Z,51.78
2023-04-07T13:41:50.178Z,51.44
2023-04-07T13:44:21.195Z,51.88
2023-04-07T13:46:51.347Z,51.55
2023-04-07T13:49:22.059Z,51.71
2023-04-07T13:51:52.638Z,51.46
2023-04-07T13:54:23.031Z,51.24
2023-04-07T13:56:53.844Z,51.17
2023-04-07T13:59:25.201Z,51.11
2023-04-07T14:01:55.136Z,51.23
2023-04-07T14:04:25.371Z,51.06
2023-04-07T14:06:56.389Z,50.96
2023-04-07T14:09:26.576Z,51.18
2023-04-07T14:11:56.735Z,51.12
2023-04-07T14:14:27.263Z,51.35
2023-04-07T14:19:07.094Z,51.23
2023-04-07T14:21:37.255Z,51.68
2023-04-07T14:24:07.316Z,51.57
2023-04-07T14:26:37.412Z,51.45
2023-04-07T14:29:07.422Z,51.51
2023-04-07T14:31:37.779Z,51.42
2023-04-07T14:34:09.672Z,51.86
2023-04-07T14:36:40.066Z,51.57
2023-04-07T14:39:11.220Z,51.68
2023-04-07T14:41:41.433Z,51.54
2023-04-07T14:44:11.643Z,51.83
2023-04-07T14:46:41.779Z,51.90
2023-04-07T14:49:12.706Z,51.92
2023-04-07T14:51:42.974Z,52.02
2023-04-07T14:54:13.088Z,52.23
2023-04-07T14:56:43.681Z,52.27
2023-04-07T14:59:13.881Z,52.34
2023-04-07T15:01:44.225Z,52.44
2023-04-07T15:04:14.744Z,52.67
2023-04-07T15:06:47.298Z,52.55
2023-04-07T15:09:17.887Z,52.70
2023-04-07T15:11:51.068Z,53.04
2023-04-07T15:14:21.667Z,53.18
2023-04-07T15:16:52.912Z,53.78
2023-04-07T15:19:22.875Z,54.45
